sensor_id;sensor_type;location;lat;lon;timestamp;pressure;altitude;pressure_sealevel;temperature;humidity
53619;BME280;68717;53.040;18.488;2023-04-08T00:00:11;101806.53;;;7.66;100.00
53619;BME280;68717;53.040;18.488;2023-04-08T00:00:44;101809.22;;;7.66;100.00
53619;BME280;68717;53.040;18.488;2023-04-08T00:01:05;101812.00;;;7.64;100.00
53619;BME280;68717;53.040;18.488;2023-04-08T00:01:19;101810.19;;;7.65;100.00
53619;BME280;68717;53.040;18.488;2023-04-08T00:01:32;101805.78;;;7.64;100.00
53619;BME280;68717;53.040;18.488;2023-04-08T00:01:44;101807.59;;;7.63;100.00
53619;BME280;68717;53.040;18.488;2023-04-08T00:01:57;101805.78;;;7.64;100.00
53619;BME280;68717;53.040;18.488;2023-04-08T00:02:10;101806.66;;;7.64;100.00
53619;BME280;68717;53.040;18.488;2023-04-08T00:02:23;101808.44;;;7.64;100.00
53619;BME280;68717;53.040;18.488;2023-04-08T00:02:36;101810.25;;;7.63;100.00
53619;BME280;68717;53.040;18.488;2023-04-08T00:02:50;101808.44;;;7.64;100.00
53619;BME280;68717;53.040;18.488;2023-04-08T00:03:03;101808.44;;;7.64;100.00
53619;BME280;68717;53.040;18.488;2023-04-08T00:03:16;101808.44;;;7.64;100.00
53619;BME280;68717;53.040;18.488;2023-04-08T00:03:29;101806.72;;;7.63;100.00
53619;BME280;68717;53.040;18.488;2023-04-08T00:03:42;101812.91;;;7.63;100.00
53619;BME280;68717;53.040;18.488;2023-04-08T00:03:55;101815.59;;;7.63;100.00
53619;BME280;68717;53.040;18.488;2023-04-08T00:04:09;101814.75;;;7.63;100.00
53619;BME280;68717;53.040;18.488;2023-04-08T00:04:22;101815.66;;;7.62;100.00
53619;BME280;68717;53.040;18.488;2023-04-08T00:04:35;101807.66;;;7.62;100.00
53619;BME280;68717;53.040;18.488;2023-04-08T00:04:48;101810.34;;;7.62;100.00
53619;BME280;68717;53.040;18.488;2023-04-08T00:05:00;101810.34;;;7.62;100.00
53619;BME280;68717;53.040;18.488;2023-04-08T00:05:13;101815.66;;;7.62;100.00
53619;BME280;68717;53.040;18.488;2023-04-08T00:05:27;101815.66;;;7.62;100.00
53619;BME280;68717;53.040;18.488;2023-04-08T00:05:39;101807.66;;;7.62;100.00
53619;BME280;68717;53.040;18.488;2023-04-08T00:05:52;101814.75;;;7.63;100.00
53619;BME280;68717;53.040;18.488;2023-04-08T00:06:05;101815.66;;;7.62;100.00
53619;BME280;68717;53.040;18.488;2023-04-08T00:06:19;101812.16;;;7.61;100.00
53619;BME280;68717;53.040;18.488;2023-04-08T00:06:32;101813.00;;;7.62;100.00
53619;BME280;68717;53.040;18.488;2023-04-08T00:06:44;101814.81;;;7.61;100.00
53619;BME280;68717;53.040;18.488;2023-04-08T00:06:58;101808.63;;;7.61;100.00
53619;BME280;68717;53.040;18.488;2023-04-08T00:07:11;101813.13;;;7.60;100.00
53619;BME280;68717;53.040;18.488;2023-04-08T00:07:23;101811.28;;;7.61;100.00
53619;BME280;68717;53.040;18.488;2023-04-08T00:07:36;101816.63;;;7.61;100.00
53619;BME280;68717;53.040;18.488;2023-04-08T00:07:49;101814.81;;;7.61;100.00
53619;BME280;68717;53.040;18.488;2023-04-08T00:08:02;101816.63;;;7.61;100.00
53619;BME280;68717;53.040;18.488;2023-04-08T00:08:14;101817.56;;;7.59;100.00
53619;BME280;68717;53.040;18.488;2023-04-08T00:08:28;101817.56;;;7.59;100.00
53619;BME280;68717;53.040;18.488;2023-04-08T00:08:42;101817.56;;;7.59;100.00
53619;BME280;68717;53.040;18.488;2023-04-08T00:08:55;101814.91;;;7.59;100.00
53619;BME280;68717;53.040;18.488;2023-04-08T00:09:07;101813.19;;;7.58;100.00
53619;BME280;68717;53.040;18.488;2023-04-08T00:09:20;101824.72;;;7.59;100.00
53619;BME280;68717;53.040;18.488;2023-04-08T00:09:33;101820.22;;;7.59;100.00
53619;BME280;68717;53.040;18.488;2023-04-08T00:09:45;101818.53;;;7.58;100.00
53619;BME280;68717;53.040;18.488;2023-04-08T00:09:59;101822.13;;;7.57;100.00
53619;BME280;68717;53.040;18.488;2023-04-08T00:10:12;101824.72;;;7.59;100.00
53619;BME280;68717;53.040;18.488;2023-04-08T00:10:24;101828.34;;;7.58;100.00
53619;BME280;68717;53.040;18.488;2023-04-08T00:10:37;101814.13;;;7.57;100.00
53619;BME280;68717;53.040;18.488;2023-04-08T00:10:50;101816.78;;;7.57;100.00
53619;BME280;68717;53.040;18.488;2023-04-08T00:11:03;101819.47;;;7.57;100.00
53619;BME280;68717;53.040;18.488;2023-04-08T00:11:15;101817.75;;;7.56;100.00
53619;BME280;68717;53.040;18.488;2023-04-08T00:11:28;101822.22;;;7.56;100.00
53619;BME280;68717;53.040;18.488;2023-04-08T00:11:42;101824.06;;;7.55;100.00
53619;BME280;68717;53.040;18.488;2023-04-08T00:11:54;101822.22;;;7.56;100.00
53619;BME280;68717;53.040;18.488;2023-04-08T00:12:08;101820.50;;;7.55;100.00
53619;BME280;68717;53.040;18.488;2023-04-08T00:12:21;101822.31;;;7.54;100.00
53619;BME280;68717;53.040;18.488;2023-04-08T00:12:33;101830.31;;;7.54;100.00
53619;BME280;68717;53.040;18.488;2023-04-08T00:12:47;101823.28;;;7.53;100.00
53619;BME280;68717;53.040;18.488;2023-04-08T00:12:59;101826.88;;;7.52;100.00
53619;BME280;68717;53.040;18.488;2023-04-08T00:13:13;101822.38;;;7.53;100.00
53619;BME280;68717;53.040;18.488;2023-04-08T00:13:26;101824.19;;;7.52;100.00
53619;BME280;68717;53.040;18.488;2023-04-08T00:13:38;101825.16;;;7.51;100.00
53619;BME280;68717;53.040;18.488;2023-04-08T00:13:51;101825.25;;;7.50;100.00
53619;BME280;68717;53.040;18.488;2023-04-08T00:14:04;101822.66;;;7.48;100.00
53619;BME280;68717;53.040;18.488;2023-04-08T00:14:16;101823.63;;;7.47;100.00
53619;BME280;68717;53.040;18.488;2023-04-08T00:14:29;101822.75;;;7.47;100.00
53619;BME280;68717;53.040;18.488;2023-04-08T00:14:43;101816.53;;;7.46;100.00
53619;BME280;68717;53.040;18.488;2023-04-08T00:14:55;101831.69;;;7.46;100.00
53619;BME280;68717;53.040;18.488;2023-04-08T00:15:09;101828.25;;;7.44;100.00
53619;BME280;68717;53.040;18.488;2023-04-08T00:15:22;101822.91;;;7.44;100.00
53619;BME280;68717;53.040;18.488;2023-04-08T00:15:35;101825.66;;;7.42;100.00
53619;BME280;68717;53.040;18.488;2023-04-08T00:15:47;101823.00;;;7.42;100.00
53619;BME280;68717;53.040;18.488;2023-04-08T00:16:00;101823.94;;;7.41;100.00
53619;BME280;68717;53.040;18.488;2023-04-08T00:16:13;101824.81;;;7.42;100.00
53619;BME280;68717;53.040;18.488;2023-04-08T00:16:27;101825.84;;;7.39;100.00
53619;BME280;68717;53.040;18.488;2023-04-08T00:16:40;101818.81;;;7.38;100.00
53619;BME280;68717;53.040;18.488;2023-04-08T00:16:52;101823.25;;;7.37;100.00
53619;BME280;68717;53.040;18.488;2023-04-08T00:17:05;101826.03;;;7.36;100.00
53619;BME280;68717;53.040;18.488;2023-04-08T00:17:18;101829.63;;;7.35;100.00
53619;BME280;68717;53.040;18.488;2023-04-08T00:17:31;101827.81;;;7.35;100.00
53619;BME280;68717;53.040;18.488;2023-04-08T00:17:44;101831.44;;;7.34;100.00
53619;BME280;68717;53.040;18.488;2023-04-08T00:17:58;101832.38;;;7.33;100.00
53619;BME280;68717;53.040;18.488;2023-04-08T00:18:10;101833.25;;;7.34;100.00
53619;BME280;68717;53.040;18.488;2023-04-08T00:18:23;101831.50;;;7.33;100.00
53619;BME280;68717;53.040;18.488;2023-04-08T00:18:36;101824.47;;;7.32;100.00
53619;BME280;68717;53.040;18.488;2023-04-08T00:18:49;101824.56;;;7.30;100.00
53619;BME280;68717;53.040;18.488;2023-04-08T00:19:02;101822.84;;;7.29;100.00
53619;BME280;68717;53.040;18.488;2023-04-08T00:19:17;101822.91;;;7.28;100.00
53619;BME280;68717;53.040;18.488;2023-04-08T00:19:30;101824.63;;;7.29;100.00
53619;BME280;68717;53.040;18.488;2023-04-08T00:19:43;101829.97;;;7.29;100.00
53619;BME280;68717;53.040;18.488;2023-04-08T00:19:56;101828.25;;;7.28;100.00
53619;BME280;68717;53.040;18.488;2023-04-08T00:20:09;101828.25;;;7.28;100.00
53619;BME280;68717;53.040;18.488;2023-04-08T00:20:22;101823.00;;;7.26;100.00
53619;BME280;68717;53.040;18.488;2023-04-08T00:20:35;101821.19;;;7.27;100.00
53619;BME280;68717;53.040;18.488;2023-04-08T00:20:49;101824.81;;;7.26;100.00
53619;BME280;68717;53.040;18.488;2023-04-08T00:21:02;101832.81;;;7.26;100.00
53619;BME280;68717;53.040;18.488;2023-04-08T00:21:14;101824.88;;;7.24;100.00
53619;BME280;68717;53.040;18.488;2023-04-08T00:21:29;101826.69;;;7.24;100.00
53619;BME280;68717;53.040;18.488;2023-04-08T00:21:42;101825.72;;;7.25;100.00
53619;BME280;68717;53.040;18.488;2023-04-08T00:21:55;101831.06;;;7.25;100.00
53619;BME280;68717;53.040;18.488;2023-04-08T00:22:08;101826.69;;;7.24;100.00
53619;BME280;68717;53.040;18.488;2023-04-08T00:22:21;101827.63;;;7.23;100.00
53619;BME280;68717;53.040;18.488;2023-04-08T00:22:34;101826.78;;;7.22;100.00
53619;BME280;68717;53.040;18.488;2023-04-08T00:22:47;101827.63;;;7.23;100.00
53619;BME280;68717;53.040;18.488;2023-04-08T00:22:59;101822.28;;;7.23;100.00
53619;BME280;68717;53.040;18.488;2023-04-08T00:23:12;101823.25;;;7.22;100.00
53619;BME280;68717;53.040;18.488;2023-04-08T00:23:25;101828.59;;;7.22;100.00
53619;BME280;68717;53.040;18.488;2023-04-08T00:23:37;101826.88;;;7.21;100.00
53619;BME280;68717;53.040;18.488;2023-04-08T00:23:52;101826.00;;;7.20;100.00
53619;BME280;68717;53.040;18.488;2023-04-08T00:24:05;101824.28;;;7.19;100.00
53619;BME280;68717;53.040;18.488;2023-04-08T00:24:18;101828.75;;;7.18;100.00
53619;BME280;68717;53.040;18.488;2023-04-08T00:24:30;101827.03;;;7.17;100.00
53619;BME280;68717;53.040;18.488;2023-04-08T00:24:43;101827.88;;;7.18;100.00
53619;BME280;68717;53.040;18.488;2023-04-08T00:24:56;101831.50;;;7.17;100.00
53619;BME280;68717;53.040;18.488;2023-04-08T00:25:09;101828.00;;;7.16;100.00
53619;BME280;68717;53.040;18.488;2023-04-08T00:25:22;101826.25;;;7.15;100.00
53619;BME280;68717;53.040;18.488;2023-04-08T00:25:37;101822.81;;;7.13;100.00
53619;BME280;68717;53.040;18.488;2023-04-08T00:25:49;101829.00;;;7.14;100.00
53619;BME280;68717;53.040;18.488;2023-04-08T00:26:02;101825.47;;;7.13;100.00
53619;BME280;68717;53.040;18.488;2023-04-08T00:26:15;101825.47;;;7.13;100.00
53619;BME280;68717;53.040;18.488;2023-04-08T00:26:27;101825.47;;;7.13;100.00
53619;BME280;68717;53.040;18.488;2023-04-08T00:26:40;101829.09;;;7.12;100.00
53619;BME280;68717;53.040;18.488;2023-04-08T00:26:54;101827.34;;;7.11;100.00
53619;BME280;68717;53.040;18.488;2023-04-08T00:27:07;101822.91;;;7.12;100.00
53619;BME280;68717;53.040;18.488;2023-04-08T00:27:20;101824.69;;;7.11;100.00
53619;BME280;68717;53.040;18.488;2023-04-08T00:27:33;101828.25;;;7.12;100.00
53619;BME280;68717;53.040;18.488;2023-04-08T00:27:46;101830.03;;;7.11;100.00
53619;BME280;68717;53.040;18.488;2023-04-08T00:27:58;101825.66;;;7.10;100.00
53619;BME280;68717;53.040;18.488;2023-04-08T00:28:11;101827.47;;;7.10;100.00
53619;BME280;68717;53.040;18.488;2023-04-08T00:28:24;101830.13;;;7.10;100.00
53619;BME280;68717;53.040;18.488;2023-04-08T00:28:37;101823.91;;;7.09;100.00
53619;BME280;68717;53.040;18.488;2023-04-08T00:28:50;101822.22;;;7.08;100.00
53619;BME280;68717;53.040;18.488;2023-04-08T00:29:03;101826.69;;;7.08;100.00
53619;BME280;68717;53.040;18.488;2023-04-08T00:29:16;101832.88;;;7.08;100.00
53619;BME280;68717;53.040;18.488;2023-04-08T00:29:28;101826.69;;;7.08;100.00
53619;BME280;68717;53.040;18.488;2023-04-08T00:29:42;101828.56;;;7.06;100.00
53619;BME280;68717;53.040;18.488;2023-04-08T00:29:54;101827.69;;;7.05;100.00
53619;BME280;68717;53.040;18.488;2023-04-08T00:30:07;101832.16;;;7.05;100.00
53619;BME280;68717;53.040;18.488;2023-04-08T00:30:21;101828.66;;;7.04;100.00
53619;BME280;68717;53.040;18.488;2023-04-08T00:30:34;101835.78;;;7.04;100.00
53619;BME280;68717;53.040;18.488;2023-04-08T00:30:46;101832.34;;;7.02;100.00
53619;BME280;68717;53.040;18.488;2023-04-08T00:30:59;101827.00;;;7.02;100.00
53619;BME280;68717;53.040;18.488;2023-04-08T00:31:12;101827.09;;;7.00;100.00
53619;BME280;68717;53.040;18.488;2023-04-08T00:31:25;101829.81;;;6.98;100.00
53619;BME280;68717;53.040;18.488;2023-04-08T00:31:39;101828.97;;;6.98;100.00
53619;BME280;68717;53.040;18.488;2023-04-08T00:31:51;101826.31;;;6.98;100.00
53619;BME280;68717;53.040;18.488;2023-04-08T00:32:04;101825.47;;;6.97;100.00
53619;BME280;68717;53.040;18.488;2023-04-08T00:32:16;101838.78;;;6.97;100.00
53619;BME280;68717;53.040;18.488;2023-04-08T00:32:29;101837.03;;;6.96;100.00
53619;BME280;68717;53.040;18.488;2023-04-08T00:32:42;101832.66;;;6.95;100.00
53619;BME280;68717;53.040;18.488;2023-04-08T00:32:55;101824.69;;;6.95;100.00
53619;BME280;68717;53.040;18.488;2023-04-08T00:33:07;101837.16;;;6.95;100.00
53619;BME280;68717;53.040;18.488;2023-04-08T00:33:21;101833.63;;;6.94;100.00
53619;BME280;68717;53.040;18.488;2023-04-08T00:33:36;101836.34;;;6.93;100.00
53619;BME280;68717;53.040;18.488;2023-04-08T00:33:48;101834.53;;;6.93;100.00
53619;BME280;68717;53.040;18.488;2023-04-08T00:34:01;101833.66;;;6.93;100.00
53619;BME280;68717;53.040;18.488;2023-04-08T00:34:14;101833.66;;;6.93;100.00
53619;BME280;68717;53.040;18.488;2023-04-08T00:34:26;101836.34;;;6.93;100.00
53619;BME280;68717;53.040;18.488;2023-04-08T00:34:40;101832.81;;;6.92;100.00
53619;BME280;68717;53.040;18.488;2023-04-08T00:34:53;101834.59;;;6.92;100.00
53619;BME280;68717;53.040;18.488;2023-04-08T00:35:06;101831.09;;;6.91;100.00
53619;BME280;68717;53.040;18.488;2023-04-08T00:35:19;101831.09;;;6.91;100.00
53619;BME280;68717;53.040;18.488;2023-04-08T00:35:32;101835.56;;;6.91;100.00
53619;BME280;68717;53.040;18.488;2023-04-08T00:35:44;101835.56;;;6.91;100.00
53619;BME280;68717;53.040;18.488;2023-04-08T00:35:57;101832.09;;;6.89;100.00
53619;BME280;68717;53.040;18.488;2023-04-08T00:36:10;101837.44;;;6.89;100.00
53619;BME280;68717;53.040;18.488;2023-04-08T00:36:23;101838.28;;;6.89;100.00
53619;BME280;68717;53.040;18.488;2023-04-08T00:36:37;101837.44;;;6.89;100.00
53619;BME280;68717;53.040;18.488;2023-04-08T00:36:50;101838.28;;;6.89;100.00
53619;BME280;68717;53.040;18.488;2023-04-08T00:37:03;101834.78;;;6.89;100.00
53619;BME280;68717;53.040;18.488;2023-04-08T00:37:15;101834.78;;;6.89;100.00
53619;BME280;68717;53.040;18.488;2023-04-08T00:37:28;101841.91;;;6.88;100.00
53619;BME280;68717;53.040;18.488;2023-04-08T00:37:42;101841.03;;;6.88;100.00
53619;BME280;68717;53.040;18.488;2023-04-08T00:37:55;101836.66;;;6.87;100.00
53619;BME280;68717;53.040;18.488;2023-04-08T00:38:08;101842.84;;;6.87;100.00
53619;BME280;68717;53.040;18.488;2023-04-08T00:38:21;101835.81;;;6.86;100.00
53619;BME280;68717;53.040;18.488;2023-04-08T00:38:33;101834.97;;;6.86;100.00
53619;BME280;68717;53.040;18.488;2023-04-08T00:38:46;101832.28;;;6.86;100.00
53619;BME280;68717;53.040;18.488;2023-04-08T00:39:01;101835.03;;;6.84;100.00
53619;BME280;68717;53.040;18.488;2023-04-08T00:39:15;101834.16;;;6.84;100.00
53619;BME280;68717;53.040;18.488;2023-04-08T00:39:28;101836.84;;;6.84;100.00
53619;BME280;68717;53.040;18.488;2023-04-08T00:39:40;101833.28;;;6.83;100.00
53619;BME280;68717;53.040;18.488;2023-04-08T00:39:53;101840.44;;;6.83;100.00
53619;BME280;68717;53.040;18.488;2023-04-08T00:40:06;101836.91;;;6.82;100.00
53619;BME280;68717;53.040;18.488;2023-04-08T00:40:19;101837.84;;;6.81;100.00
53619;BME280;68717;53.040;18.488;2023-04-08T00:40:32;101837.84;;;6.81;100.00
53619;BME280;68717;53.040;18.488;2023-04-08T00:40:46;101839.66;;;6.81;100.00
53619;BME280;68717;53.040;18.488;2023-04-08T00:40:59;101836.19;;;6.78;100.00
53619;BME280;68717;53.040;18.488;2023-04-08T00:41:12;101843.28;;;6.80;100.00
53619;BME280;68717;53.040;18.488;2023-04-08T00:41:25;101836.19;;;6.78;100.00
53619;BME280;68717;53.040;18.488;2023-04-08T00:41:37;101833.63;;;6.77;100.00
53619;BME280;68717;53.040;18.488;2023-04-08T00:41:50;101836.38;;;6.75;100.00
53619;BME280;68717;53.040;18.488;2023-04-08T00:42:03;101832.84;;;6.75;100.00
53619;BME280;68717;53.040;18.488;2023-04-08T00:42:16;101840.84;;;6.75;100.00
53619;BME280;68717;53.040;18.488;2023-04-08T00:42:29;101839.97;;;6.74;100.00
53619;BME280;68717;53.040;18.488;2023-04-08T00:42:42;101841.78;;;6.74;100.00
53619;BME280;68717;53.040;18.488;2023-04-08T00:42:55;101840.06;;;6.73;100.00
53619;BME280;68717;53.040;18.488;2023-04-08T00:43:08;101841.84;;;6.72;100.00
53619;BME280;68717;53.040;18.488;2023-04-08T00:43:21;101839.28;;;6.71;100.00
53619;BME280;68717;53.040;18.488;2023-04-08T00:43:35;101843.84;;;6.69;100.00
53619;BME280;68717;53.040;18.488;2023-04-08T00:43:47;101839.44;;;6.68;100.00
53619;BME280;68717;53.040;18.488;2023-04-08T00:44:00;101843.06;;;6.67;100.00
53619;BME280;68717;53.040;18.488;2023-04-08T00:44:13;101838.75;;;6.64;100.00
53619;BME280;68717;53.040;18.488;2023-04-08T00:44:25;101837.00;;;6.63;100.00
53619;BME280;68717;53.040;18.488;2023-04-08T00:44:38;101845.06;;;6.62;100.00
53619;BME280;68717;53.040;18.488;2023-04-08T00:44:51;101837.19;;;6.60;100.00
53619;BME280;68717;53.040;18.488;2023-04-08T00:45:04;101840.78;;;6.59;100.00
53619;BME280;68717;53.040;18.488;2023-04-08T00:45:18;101840.94;;;6.56;100.00
53619;BME280;68717;53.040;18.488;2023-04-08T00:45:32;101845.31;;;6.57;100.00
53619;BME280;68717;53.040;18.488;2023-04-08T00:45:45;101838.28;;;6.56;100.00
53619;BME280;68717;53.040;18.488;2023-04-08T00:45:57;101835.63;;;6.56;100.00
53619;BME280;68717;53.040;18.488;2023-04-08T00:46:10;101839.22;;;6.55;100.00
53619;BME280;68717;53.040;18.488;2023-04-08T00:46:23;101839.22;;;6.55;100.00
53619;BME280;68717;53.040;18.488;2023-04-08T00:46:38;101839.22;;;6.55;100.00
53619;BME280;68717;53.040;18.488;2023-04-08T00:46:52;101844.63;;;6.53;100.00
53619;BME280;68717;53.040;18.488;2023-04-08T00:47:04;101841.09;;;6.53;100.00
53619;BME280;68717;53.040;18.488;2023-04-08T00:47:17;101841.09;;;6.53;100.00
53619;BME280;68717;53.040;18.488;2023-04-08T00:47:30;101839.38;;;6.52;100.00
53619;BME280;68717;53.040;18.488;2023-04-08T00:47:43;101840.34;;;6.51;100.00
53619;BME280;68717;53.040;18.488;2023-04-08T00:47:55;101840.34;;;6.51;100.00
53619;BME280;68717;53.040;18.488;2023-04-08T00:48:08;101845.66;;;6.51;100.00
53619;BME280;68717;53.040;18.488;2023-04-08T00:48:22;101851.91;;;6.50;100.00
53619;BME280;68717;53.040;18.488;2023-04-08T00:48:34;101843.94;;;6.50;100.00
53619;BME280;68717;53.040;18.488;2023-04-08T00:48:47;101841.25;;;6.50;100.00
53619;BME280;68717;53.040;18.488;2023-04-08T00:49:00;101851.06;;;6.49;100.00
53619;BME280;68717;53.040;18.488;2023-04-08T00:49:13;101845.75;;;6.49;100.00
53619;BME280;68717;53.040;18.488;2023-04-08T00:49:26;101836.97;;;6.47;100.00
53619;BME280;68717;53.040;18.488;2023-04-08T00:49:39;101846.75;;;6.47;100.00
53619;BME280;68717;53.040;18.488;2023-04-08T00:49:51;101842.28;;;6.47;100.00
53619;BME280;68717;53.040;18.488;2023-04-08T00:50:07;101846.75;;;6.47;100.00
53619;BME280;68717;53.040;18.488;2023-04-08T00:50:20;101843.22;;;6.46;100.00
53619;BME280;68717;53.040;18.488;2023-04-08T00:50:33;101846.84;;;6.45;100.00
53619;BME280;68717;53.040;18.488;2023-04-08T00:50:46;101845.88;;;6.46;100.00
53619;BME280;68717;53.040;18.488;2023-04-08T00:50:59;101845.97;;;6.45;100.00
53619;BME280;68717;53.040;18.488;2023-04-08T00:51:11;101852.16;;;6.45;100.00
53619;BME280;68717;53.040;18.488;2023-04-08T00:51:24;101848.63;;;6.45;100.00
53619;BME280;68717;53.040;18.488;2023-04-08T00:51:38;101840.72;;;6.43;100.00
53619;BME280;68717;53.040;18.488;2023-04-08T00:51:52;101849.56;;;6.44;100.00
53619;BME280;68717;53.040;18.488;2023-04-08T00:52:05;101850.53;;;6.43;100.00
53619;BME280;68717;53.040;18.488;2023-04-08T00:52:17;101845.19;;;6.43;100.00
53619;BME280;68717;53.040;18.488;2023-04-08T00:52:30;101850.53;;;6.43;100.00
53619;BME280;68717;53.040;18.488;2023-04-08T00:52:43;101851.44;;;6.42;100.00
53619;BME280;68717;53.040;18.488;2023-04-08T00:52:55;101847.06;;;6.41;100.00
53619;BME280;68717;53.040;18.488;2023-04-08T00:53:09;101849.75;;;6.41;100.00
53619;BME280;68717;53.040;18.488;2023-04-08T00:53:22;101848.09;;;6.38;100.00
53619;BME280;68717;53.040;18.488;2023-04-08T00:53:36;101848.16;;;6.36;100.00
53619;BME280;68717;53.040;18.488;2023-04-08T00:53:49;101844.72;;;6.34;100.00
53619;BME280;68717;53.040;18.488;2023-04-08T00:54:04;101851.84;;;6.34;100.00
53619;BME280;68717;53.040;18.488;2023-04-08T00:54:17;101854.59;;;6.32;100.00
53619;BME280;68717;53.040;18.488;2023-04-08T00:54:30;101850.22;;;6.31;100.00
53619;BME280;68717;53.040;18.488;2023-04-08T00:54:44;101851.13;;;6.30;100.00
53619;BME280;68717;53.040;18.488;2023-04-08T00:54:56;101847.69;;;6.28;100.00
53619;BME280;68717;53.040;18.488;2023-04-08T00:55:09;101847.69;;;6.28;100.00
53619;BME280;68717;53.040;18.488;2023-04-08T00:55:22;101849.50;;;6.28;100.00
53619;BME280;68717;53.040;18.488;2023-04-08T00:55:34;101842.53;;;6.25;100.00
53619;BME280;68717;53.040;18.488;2023-04-08T00:55:47;101853.25;;;6.24;100.00
53619;BME280;68717;53.040;18.488;2023-04-08T00:56:01;101841.81;;;6.22;100.00
53619;BME280;68717;53.040;18.488;2023-04-08T00:56:13;101848.94;;;6.21;100.00
53619;BME280;68717;53.040;18.488;2023-04-08T00:56:26;101850.75;;;6.21;100.00
53619;BME280;68717;53.040;18.488;2023-04-08T00:56:39;101849.09;;;6.18;100.00
53619;BME280;68717;53.040;18.488;2023-04-08T00:56:52;101848.16;;;6.19;100.00
53619;BME280;68717;53.040;18.488;2023-04-08T00:57:05;101859.75;;;6.18;100.00
53619;BME280;68717;53.040;18.488;2023-04-08T00:57:19;101857.06;;;6.18;100.00
53619;BME280;68717;53.040;18.488;2023-04-08T00:57:32;101857.16;;;6.17;100.00
53619;BME280;68717;53.040;18.488;2023-04-08T00:57:45;101851.84;;;6.17;100.00
53619;BME280;68717;53.040;18.488;2023-04-08T00:57:58;101859.84;;;6.17;100.00
53619;BME280;68717;53.040;18.488;2023-04-08T00:58:11;101850.97;;;6.16;100.00
53619;BME280;68717;53.040;18.488;2023-04-08T00:58:26;101853.63;;;6.16;100.00
53619;BME280;68717;53.040;18.488;2023-04-08T00:58:39;101852.78;;;6.15;100.00
53619;BME280;68717;53.040;18.488;2023-04-08T00:58:52;101851.91;;;6.15;100.00
53619;BME280;68717;53.040;18.488;2023-04-08T00:59:06;101844.88;;;6.14;100.00
53619;BME280;68717;53.040;18.488;2023-04-08T00:59:19;101852.88;;;6.14;100.00
53619;BME280;68717;53.040;18.488;2023-04-08T00:59:32;101846.66;;;6.13;100.00
53619;BME280;68717;53.040;18.488;2023-04-08T00:59:47;101849.31;;;6.13;100.00
53619;BME280;68717;53.040;18.488;2023-04-08T01:00:00;101852.09;;;6.12;100.00
53619;BME280;68717;53.040;18.488;2023-04-08T01:00:13;101854.75;;;6.12;100.00
53619;BME280;68717;53.040;18.488;2023-04-08T01:00:28;101851.19;;;6.11;100.00
53619;BME280;68717;53.040;18.488;2023-04-08T01:00:45;101850.34;;;6.11;100.00
53619;BME280;68717;53.040;18.488;2023-04-08T01:01:06;101850.34;;;6.11;100.00
53619;BME280;68717;53.040;18.488;2023-04-08T01:01:30;101856.63;;;6.10;100.00
53619;BME280;68717;53.040;18.488;2023-04-08T01:01:50;101852.22;;;6.09;100.00
53619;BME280;68717;53.040;18.488;2023-04-08T01:02:11;101856.69;;;6.08;100.00
53619;BME280;68717;53.040;18.488;2023-04-08T01:02:32;101856.69;;;6.08;100.00
53619;BME280;68717;53.040;18.488;2023-04-08T01:02:53;101850.50;;;6.08;100.00
53619;BME280;68717;53.040;18.488;2023-04-08T01:03:15;101854.09;;;6.07;100.00
53619;BME280;68717;53.040;18.488;2023-04-08T01:03:36;101850.50;;;6.08;100.00
53619;BME280;68717;53.040;18.488;2023-04-08T01:03:57;101845.25;;;6.06;100.00
53619;BME280;68717;53.040;18.488;2023-04-08T01:04:24;101854.09;;;6.07;100.00
53619;BME280;68717;53.040;18.488;2023-04-08T01:04:46;101857.72;;;6.06;100.00
53619;BME280;68717;53.040;18.488;2023-04-08T01:05:03;101849.72;;;6.06;100.00
53619;BME280;68717;53.040;18.488;2023-04-08T01:05:22;101857.72;;;6.06;100.00
53619;BME280;68717;53.040;18.488;2023-04-08T01:05:48;101851.53;;;6.05;100.00
53619;BME280;68717;53.040;18.488;2023-04-08T01:06:10;101854.25;;;6.04;100.00
53619;BME280;68717;53.040;18.488;2023-04-08T01:06:30;101852.50;;;6.03;100.00
53619;BME280;68717;53.040;18.488;2023-04-08T01:06:48;101853.47;;;6.02;100.00
53619;BME280;68717;53.040;18.488;2023-04-08T01:07:08;101855.28;;;6.01;100.00
53619;BME280;68717;53.040;18.488;2023-04-08T01:07:26;101859.72;;;6.01;100.00
53619;BME280;68717;53.040;18.488;2023-04-08T01:07:44;101858.88;;;6.00;100.00
53619;BME280;68717;53.040;18.488;2023-04-08T01:08:01;101857.16;;;5.99;100.00
53619;BME280;68717;53.040;18.488;2023-04-08T01:08:16;101865.19;;;5.98;100.00
53619;BME280;68717;53.040;18.488;2023-04-08T01:08:29;101859.88;;;5.98;100.00
53619;BME280;68717;53.040;18.488;2023-04-08T01:08:44;101859.94;;;5.96;100.00
53619;BME280;68717;53.040;18.488;2023-04-08T01:08:59;101854.63;;;5.96;100.00
53619;BME280;68717;53.040;18.488;2023-04-08T01:09:16;101858.16;;;5.97;100.00
53619;BME280;68717;53.040;18.488;2023-04-08T01:09:32;101862.59;;;5.96;100.00
53619;BME280;68717;53.040;18.488;2023-04-08T01:09:52;101859.09;;;5.95;100.00
53619;BME280;68717;53.040;18.488;2023-04-08T01:10:09;101860.91;;;5.95;100.00
53619;BME280;68717;53.040;18.488;2023-04-08T01:10:27;101867.06;;;5.95;100.00
53619;BME280;68717;53.040;18.488;2023-04-08T01:10:42;101863.63;;;5.93;100.00
53619;BME280;68717;53.040;18.488;2023-04-08T01:11:00;101863.69;;;5.92;100.00
53619;BME280;68717;53.040;18.488;2023-04-08T01:11:14;101860.19;;;5.91;100.00